sensor_id;sensor_type;location;lat;lon;timestamp;temperature;humidity
35804;DHT22;21924;51.934;7.414;2023-04-23T00:00:22;10.40;99.90
35804;DHT22;21924;51.934;7.414;2023-04-23T00:03:07;10.30;99.90
35804;DHT22;21924;51.934;7.414;2023-04-23T00:05:56;10.20;99.90
35804;DHT22;21924;51.934;7.414;2023-04-23T00:08:41;10.20;99.90
35804;DHT22;21924;51.934;7.414;2023-04-23T00:11:26;10.20;99.90
35804;DHT22;21924;51.934;7.414;2023-04-23T00:14:11;10.20;99.90
35804;DHT22;21924;51.934;7.414;2023-04-23T00:16:55;10.20;99.90
35804;DHT22;21924;51.934;7.414;2023-04-23T00:19:40;10.10;99.90
35804;DHT22;21924;51.934;7.414;2023-04-23T00:22:24;10.10;99.90
35804;DHT22;21924;51.934;7.414;2023-04-23T00:25:09;10.10;99.90
35804;DHT22;21924;51.934;7.414;2023-04-23T00:27:54;10.10;99.90
35804;DHT22;21924;51.934;7.414;2023-04-23T00:30:38;10.10;99.90
35804;DHT22;21924;51.934;7.414;2023-04-23T00:33:23;10.20;99.90
35804;DHT22;21924;51.934;7.414;2023-04-23T00:36:07;10.20;99.90
35804;DHT22;21924;51.934;7.414;2023-04-23T00:38:51;10.20;99.90
35804;DHT22;21924;51.934;7.414;2023-04-23T00:41:36;10.20;99.90
35804;DHT22;21924;51.934;7.414;2023-04-23T00:44:20;10.20;99.90
35804;DHT22;21924;51.934;7.414;2023-04-23T00:47:07;10.20;99.90
35804;DHT22;21924;51.934;7.414;2023-04-23T00:49:51;10.20;99.90
35804;DHT22;21924;51.934;7.414;2023-04-23T00:52:38;10.20;99.90
35804;DHT22;21924;51.934;7.414;2023-04-23T00:55:24;10.10;99.90
35804;DHT22;21924;51.934;7.414;2023-04-23T00:58:08;10.00;99.90
35804;DHT22;21924;51.934;7.414;2023-04-23T01:00:52;10.10;99.90
35804;DHT22;21924;51.934;7.414;2023-04-23T01:03:37;10.00;99.90
35804;DHT22;21924;51.934;7.414;2023-04-23T01:06:23;10.00;99.90
35804;DHT22;21924;51.934;7.414;2023-04-23T01:09:12;10.00;99.90
35804;DHT22;21924;51.934;7.414;2023-04-23T01:11:56;9.90;99.90
35804;DHT22;21924;51.934;7.414;2023-04-23T01:14:42;9.90;99.90
35804;DHT22;21924;51.934;7.414;2023-04-23T01:17:26;9.90;99.90
35804;DHT22;21924;51.934;7.414;2023-04-23T01:20:11;9.90;99.90
35804;DHT22;21924;51.934;7.414;2023-04-23T01:22:55;9.90;99.90
35804;DHT22;21924;51.934;7.414;2023-04-23T01:25:39;9.90;99.90
35804;DHT22;21924;51.934;7.414;2023-04-23T01:28:24;9.90;99.90
35804;DHT22;21924;51.934;7.414;2023-04-23T01:31:09;9.90;99.90
35804;DHT22;21924;51.934;7.414;2023-04-23T01:33:54;9.90;99.90
35804;DHT22;21924;51.934;7.414;2023-04-23T01:36:40;9.80;99.90
35804;DHT22;21924;51.934;7.414;2023-04-23T01:39:25;9.70;99.90
35804;DHT22;21924;51.934;7.414;2023-04-23T01:42:09;9.70;99.90
35804;DHT22;21924;51.934;7.414;2023-04-23T01:44:54;9.70;99.90
35804;DHT22;21924;51.934;7.414;2023-04-23T01:47:39;9.70;99.90
35804;DHT22;21924;51.934;7.414;2023-04-23T01:50:24;9.60;99.90
35804;DHT22;21924;51.934;7.414;2023-04-23T01:53:10;9.70;99.90
35804;DHT22;21924;51.934;7.414;2023-04-23T01:55:55;9.70;99.90
35804;DHT22;21924;51.934;7.414;2023-04-23T01:58:39;9.70;99.90
35804;DHT22;21924;51.934;7.414;2023-04-23T02:01:24;9.60;99.90
35804;DHT22;21924;51.934;7.414;2023-04-23T02:04:09;9.60;99.90
35804;DHT22;21924;51.934;7.414;2023-04-23T02:06:54;9.60;99.90
35804;DHT22;21924;51.934;7.414;2023-04-23T02:09:39;9.60;99.90
35804;DHT22;21924;51.934;7.414;2023-04-23T02:12:24;9.60;99.90
35804;DHT22;21924;51.934;7.414;2023-04-23T02:15:10;9.60;99.90
35804;DHT22;21924;51.934;7.414;2023-04-23T02:17:55;9.60;99.90
35804;DHT22;21924;51.934;7.414;2023-04-23T02:20:39;9.60;99.90
35804;DHT22;21924;51.934;7.414;2023-04-23T02:23:24;9.60;99.90
35804;DHT22;21924;51.934;7.414;2023-04-23T02:26:08;9.50;99.90
35804;DHT22;21924;51.934;7.414;2023-04-23T02:28:52;9.50;99.90
35804;DHT22;21924;51.934;7.414;2023-04-23T02:31:36;9.50;99.90
35804;DHT22;21924;51.934;7.414;2023-04-23T02:34:21;9.40;99.90
35804;DHT22;21924;51.934;7.414;2023-04-23T02:37:05;9.40;99.90
35804;DHT22;21924;51.934;7.414;2023-04-23T02:39:49;9.40;99.90
35804;DHT22;21924;51.934;7.414;2023-04-23T02:42:34;9.30;99.90
35804;DHT22;21924;51.934;7.414;2023-04-23T02:45:18;9.20;99.90
35804;DHT22;21924;51.934;7.414;2023-04-23T02:48:03;9.20;99.90
35804;DHT22;21924;51.934;7.414;2023-04-23T02:50:47;9.10;99.90
35804;DHT22;21924;51.934;7.414;2023-04-23T02:53:32;9.00;99.90
35804;DHT22;21924;51.934;7.414;2023-04-23T02:56:16;8.90;99.90
35804;DHT22;21924;51.934;7.414;2023-04-23T02:59:00;8.90;99.90
35804;DHT22;21924;51.934;7.414;2023-04-23T03:01:45;8.90;99.90
35804;DHT22;21924;51.934;7.414;2023-04-23T03:04:29;8.80;99.90
35804;DHT22;21924;51.934;7.414;2023-04-23T03:07:13;8.90;99.90
35804;DHT22;21924;51.934;7.414;2023-04-23T03:10:00;8.90;99.90
35804;DHT22;21924;51.934;7.414;2023-04-23T03:12:44;8.90;99.90
35804;DHT22;21924;51.934;7.414;2023-04-23T03:15:29;8.90;99.90
35804;DHT22;21924;51.934;7.414;2023-04-23T03:18:13;8.90;99.90
35804;DHT22;21924;51.934;7.414;2023-04-23T03:20:57;8.90;99.90
35804;DHT22;21924;51.934;7.414;2023-04-23T03:23:41;8.90;99.90
35804;DHT22;21924;51.934;7.414;2023-04-23T03:26:25;8.90;99.90
35804;DHT22;21924;51.934;7.414;2023-04-23T03:29:10;8.90;99.90
35804;DHT22;21924;51.934;7.414;2023-04-23T03:31:54;9.00;99.90
35804;DHT22;21924;51.934;7.414;2023-04-23T03:34:39;9.00;99.90
35804;DHT22;21924;51.934;7.414;2023-04-23T03:37:24;9.00;99.90
35804;DHT22;21924;51.934;7.414;2023-04-23T03:40:08;9.00;99.90
35804;DHT22;21924;51.934;7.414;2023-04-23T03:42:53;9.00;99.90
35804;DHT22;21924;51.934;7.414;2023-04-23T03:45:37;9.00;99.90
35804;DHT22;21924;51.934;7.414;2023-04-23T03:48:21;8.90;99.90
35804;DHT22;21924;51.934;7.414;2023-04-23T03:51:06;8.90;99.90
35804;DHT22;21924;51.934;7.414;2023-04-23T03:53:50;8.90;99.90
35804;DHT22;21924;51.934;7.414;2023-04-23T03:56:34;8.80;99.90
35804;DHT22;21924;51.934;7.414;2023-04-23T03:59:19;8.70;99.90
35804;DHT22;21924;51.934;7.414;2023-04-23T04:02:04;8.70;99.90
35804;DHT22;21924;51.934;7.414;2023-04-23T04:04:49;8.60;99.90
35804;DHT22;21924;51.934;7.414;2023-04-23T04:07:34;8.60;99.90
35804;DHT22;21924;51.934;7.414;2023-04-23T04:10:20;8.60;99.90
35804;DHT22;21924;51.934;7.414;2023-04-23T04:13:04;8.60;99.90
35804;DHT22;21924;51.934;7.414;2023-04-23T04:15:48;8.60;99.90
35804;DHT22;21924;51.934;7.414;2023-04-23T04:18:33;8.60;99.90
35804;DHT22;21924;51.934;7.414;2023-04-23T04:21:17;8.60;99.90
35804;DHT22;21924;51.934;7.414;2023-04-23T04:24:02;8.60;99.90
35804;DHT22;21924;51.934;7.414;2023-04-23T04:26:49;8.60;99.90
35804;DHT22;21924;51.934;7.414;2023-04-23T04:29:35;8.70;99.90
35804;DHT22;21924;51.934;7.414;2023-04-23T04:32:19;8.70;99.90
35804;DHT22;21924;51.934;7.414;2023-04-23T04:35:06;8.70;99.90
35804;DHT22;21924;51.934;7.414;2023-04-23T04:37:52;8.60;99.90
35804;DHT22;21924;51.934;7.414;2023-04-23T04:40:37;8.70;99.90
35804;DHT22;21924;51.934;7.414;2023-04-23T04:43:21;8.60;99.90
35804;DHT22;21924;51.934;7.414;2023-04-23T04:46:05;8.60;99.90
35804;DHT22;21924;51.934;7.414;2023-04-23T04:48:50;8.60;99.90
35804;DHT22;21924;51.934;7.414;2023-04-23T04:51:35;8.70;99.90
35804;DHT22;21924;51.934;7.414;2023-04-23T04:54:19;8.70;99.90
35804;DHT22;21924;51.934;7.414;2023-04-23T04:57:04;8.60;99.90
35804;DHT22;21924;51.934;7.414;2023-04-23T04:59:49;8.60;99.90
35804;DHT22;21924;51.934;7.414;2023-04-23T05:02:34;8.60;99.90
35804;DHT22;21924;51.934;7.414;2023-04-23T05:05:20;8.60;99.90
35804;DHT22;21924;51.934;7.414;2023-04-23T05:08:04;8.60;99.90
35804;DHT22;21924;51.934;7.414;2023-04-23T05:10:48;8.60;99.90
35804;DHT22;21924;51.934;7.414;2023-04-23T05:13:37;8.50;99.90
35804;DHT22;21924;51.934;7.414;2023-04-23T05:16:21;8.60;99.90
35804;DHT22;21924;51.934;7.414;2023-04-23T05:19:05;8.60;99.90
35804;DHT22;21924;51.934;7.414;2023-04-23T05:21:51;8.60;99.90
35804;DHT22;21924;51.934;7.414;2023-04-23T05:24:35;8.60;99.90
35804;DHT22;21924;51.934;7.414;2023-04-23T05:27:19;8.70;99.90
35804;DHT22;21924;51.934;7.414;2023-04-23T05:30:06;8.70;99.90
35804;DHT22;21924;51.934;7.414;2023-04-23T05:32:51;8.80;99.90
35804;DHT22;21924;51.934;7.414;2023-04-23T05:35:35;8.90;99.90
35804;DHT22;21924;51.934;7.414;2023-04-23T05:38:20;9.00;99.90
35804;DHT22;21924;51.934;7.414;2023-04-23T05:41:04;9.20;99.90
35804;DHT22;21924;51.934;7.414;2023-04-23T05:43:48;9.40;99.90
35804;DHT22;21924;51.934;7.414;2023-04-23T05:46:33;9.50;99.90
35804;DHT22;21924;51.934;7.414;2023-04-23T05:49:17;9.40;99.90
35804;DHT22;21924;51.934;7.414;2023-04-23T05:52:01;9.30;99.90
35804;DHT22;21924;51.934;7.414;2023-04-23T05:54:46;9.40;99.90
35804;DHT22;21924;51.934;7.414;2023-04-23T05:57:30;9.40;99.90
35804;DHT22;21924;51.934;7.414;2023-04-23T06:00:14;9.40;99.90
35804;DHT22;21924;51.934;7.414;2023-04-23T06:03:00;9.60;99.90
35804;DHT22;21924;51.934;7.414;2023-04-23T06:05:44;9.60;99.90
35804;DHT22;21924;51.934;7.414;2023-04-23T06:08:29;9.70;99.90
35804;DHT22;21924;51.934;7.414;2023-04-23T06:11:13;9.80;99.90
35804;DHT22;21924;51.934;7.414;2023-04-23T06:13:58;9.90;99.90
35804;DHT22;21924;51.934;7.414;2023-04-23T06:16:42;9.90;99.90
35804;DHT22;21924;51.934;7.414;2023-04-23T06:19:26;10.10;99.90
35804;DHT22;21924;51.934;7.414;2023-04-23T06:22:11;10.20;99.90
35804;DHT22;21924;51.934;7.414;2023-04-23T06:24:55;10.30;99.90
35804;DHT22;21924;51.934;7.414;2023-04-23T06:27:39;10.40;99.90
35804;DHT22;21924;51.934;7.414;2023-04-23T06:30:23;10.60;99.90
35804;DHT22;21924;51.934;7.414;2023-04-23T06:33:08;10.80;99.90
35804;DHT22;21924;51.934;7.414;2023-04-23T06:35:52;11.00;99.90
35804;DHT22;21924;51.934;7.414;2023-04-23T06:38:36;11.20;99.90
35804;DHT22;21924;51.934;7.414;2023-04-23T06:41:21;11.50;99.90
35804;DHT22;21924;51.934;7.414;2023-04-23T06:44:05;11.70;99.90
35804;DHT22;21924;51.934;7.414;2023-04-23T06:46:50;11.90;99.90
35804;DHT22;21924;51.934;7.414;2023-04-23T06:49:34;12.00;99.90
35804;DHT22;21924;51.934;7.414;2023-04-23T06:52:18;12.00;99.90
35804;DHT22;21924;51.934;7.414;2023-04-23T06:55:03;12.10;99.90
35804;DHT22;21924;51.934;7.414;2023-04-23T06:57:47;12.10;99.90
35804;DHT22;21924;51.934;7.414;2023-04-23T07:00:32;12.10;99.90
35804;DHT22;21924;51.934;7.414;2023-04-23T07:03:16;12.10;99.90
35804;DHT22;21924;51.934;7.414;2023-04-23T07:06:02;12.20;99.90
35804;DHT22;21924;51.934;7.414;2023-04-23T07:08:46;12.40;99.90
35804;DHT22;21924;51.934;7.414;2023-04-23T07:11:31;12.50;99.90
35804;DHT22;21924;51.934;7.414;2023-04-23T07:14:17;12.60;99.90
35804;DHT22;21924;51.934;7.414;2023-04-23T07:17:01;12.70;99.90
35804;DHT22;21924;51.934;7.414;2023-04-23T07:19:46;12.70;99.90
35804;DHT22;21924;51.934;7.414;2023-04-23T07:22:31;12.70;99.90
35804;DHT22;21924;51.934;7.414;2023-04-23T07:25:15;12.80;99.90
35804;DHT22;21924;51.934;7.414;2023-04-23T07:28:00;12.80;99.90
35804;DHT22;21924;51.934;7.414;2023-04-23T07:30:44;12.90;99.90
35804;DHT22;21924;51.934;7.414;2023-04-23T07:33:28;12.80;99.90
35804;DHT22;21924;51.934;7.414;2023-04-23T07:36:12;12.80;99.90
35804;DHT22;21924;51.934;7.414;2023-04-23T07:38:57;12.80;99.90
35804;DHT22;21924;51.934;7.414;2023-04-23T07:41:41;12.80;99.90
35804;DHT22;21924;51.934;7.414;2023-04-23T07:44:25;12.80;99.90
35804;DHT22;21924;51.934;7.414;2023-04-23T07:47:09;12.80;99.90
35804;DHT22;21924;51.934;7.414;2023-04-23T07:49:54;12.70;99.90
35804;DHT22;21924;51.934;7.414;2023-04-23T07:52:38;12.60;99.90
35804;DHT22;21924;51.934;7.414;2023-04-23T07:55:22;12.70;99.90
35804;DHT22;21924;51.934;7.414;2023-04-23T07:58:06;12.90;99.90
35804;DHT22;21924;51.934;7.414;2023-04-23T08:00:51;13.10;99.90
35804;DHT22;21924;51.934;7.414;2023-04-23T08:03:35;13.20;99.90
35804;DHT22;21924;51.934;7.414;2023-04-23T08:06:19;13.30;99.90
35804;DHT22;21924;51.934;7.414;2023-04-23T08:09:04;13.40;99.90
35804;DHT22;21924;51.934;7.414;2023-04-23T08:11:53;13.50;99.90
35804;DHT22;21924;51.934;7.414;2023-04-23T08:14:37;13.70;99.90
35804;DHT22;21924;51.934;7.414;2023-04-23T08:17:22;13.70;99.90
35804;DHT22;21924;51.934;7.414;2023-04-23T08:20:07;13.70;99.90
35804;DHT22;21924;51.934;7.414;2023-04-23T08:22:51;13.70;99.90
35804;DHT22;21924;51.934;7.414;2023-04-23T08:25:36;13.80;99.90
35804;DHT22;21924;51.934;7.414;2023-04-23T08:28:20;13.90;99.90
35804;DHT22;21924;51.934;7.414;2023-04-23T08:31:05;14.00;99.90
35804;DHT22;21924;51.934;7.414;2023-04-23T08:33:49;14.10;99.90
35804;DHT22;21924;51.934;7.414;2023-04-23T08:36:33;14.20;99.90
35804;DHT22;21924;51.934;7.414;2023-04-23T08:39:17;14.20;99.90
35804;DHT22;21924;51.934;7.414;2023-04-23T08:42:09;14.20;99.90
35804;DHT22;21924;51.934;7.414;2023-04-23T08:44:54;14.40;99.90
35804;DHT22;21924;51.934;7.414;2023-04-23T08:47:39;14.40;99.90
35804;DHT22;21924;51.934;7.414;2023-04-23T08:50:28;14.50;99.90
35804;DHT22;21924;51.934;7.414;2023-04-23T08:53:15;14.60;99.90
35804;DHT22;21924;51.934;7.414;2023-04-23T08:56:01;14.70;99.90
35804;DHT22;21924;51.934;7.414;2023-04-23T08:58:47;14.70;99.90
35804;DHT22;21924;51.934;7.414;2023-04-23T09:01:32;14.90;99.90
35804;DHT22;21924;51.934;7.414;2023-04-23T09:04:17;15.00;99.90
35804;DHT22;21924;51.934;7.414;2023-04-23T09:07:03;15.10;99.90
35804;DHT22;21924;51.934;7.414;2023-04-23T09:09:47;15.20;99.90
35804;DHT22;21924;51.934;7.414;2023-04-23T09:12:34;15.20;99.90
35804;DHT22;21924;51.934;7.414;2023-04-23T09:15:19;15.30;99.90
35804;DHT22;21924;51.934;7.414;2023-04-23T09:18:03;15.50;99.90
35804;DHT22;21924;51.934;7.414;2023-04-23T09:20:48;15.60;99.90
35804;DHT22;21924;51.934;7.414;2023-04-23T09:23:33;15.90;99.90
35804;DHT22;21924;51.934;7.414;2023-04-23T09:26:21;16.10;99.90
35804;DHT22;21924;51.934;7.414;2023-04-23T09:29:12;16.10;99.90
35804;DHT22;21924;51.934;7.414;2023-04-23T09:32:06;16.40;99.90
35804;DHT22;21924;51.934;7.414;2023-04-23T09:34:55;16.40;99.90
35804;DHT22;21924;51.934;7.414;2023-04-23T09:37:44;16.30;99.90
35804;DHT22;21924;51.934;7.414;2023-04-23T09:40:31;16.30;99.90
35804;DHT22;21924;51.934;7.414;2023-04-23T09:43:16;16.50;99.90
35804;DHT22;21924;51.934;7.414;2023-04-23T09:46:00;16.80;99.90
35804;DHT22;21924;51.934;7.414;2023-04-23T09:48:44;17.20;99.90
35804;DHT22;21924;51.934;7.414;2023-04-23T09:51:29;17.40;99.90
35804;DHT22;21924;51.934;7.414;2023-04-23T09:54:16;17.50;99.90
35804;DHT22;21924;51.934;7.414;2023-04-23T09:57:01;17.60;99.90
35804;DHT22;21924;51.934;7.414;2023-04-23T09:59:47;17.50;99.90
35804;DHT22;21924;51.934;7.414;2023-04-23T10:02:32;17.50;99.90
35804;DHT22;21924;51.934;7.414;2023-04-23T10:05:18;17.60;99.90
35804;DHT22;21924;51.934;7.414;2023-04-23T10:08:04;18.10;99.90
35804;DHT22;21924;51.934;7.414;2023-04-23T10:10:48;18.30;99.90
35804;DHT22;21924;51.934;7.414;2023-04-23T10:13:35;18.40;99.90
35804;DHT22;21924;51.934;7.414;2023-04-23T10:16:20;18.60;99.90
35804;DHT22;21924;51.934;7.414;2023-04-23T10:19:08;18.60;99.90
35804;DHT22;21924;51.934;7.414;2023-04-23T10:22:00;18.70;99.90
35804;DHT22;21924;51.934;7.414;2023-04-23T10:24:52;18.90;99.90
35804;DHT22;21924;51.934;7.414;2023-04-23T10:27:40;18.80;99.90
35804;DHT22;21924;51.934;7.414;2023-04-23T10:30:24;18.90;99.90
35804;DHT22;21924;51.934;7.414;2023-04-23T10:33:11;18.80;99.90
35804;DHT22;21924;51.934;7.414;2023-04-23T10:35:56;18.60;99.90
35804;DHT22;21924;51.934;7.414;2023-04-23T10:38:40;18.50;99.90
35804;DHT22;21924;51.934;7.414;2023-04-23T10:41:30;18.40;99.90
35804;DHT22;21924;51.934;7.414;2023-04-23T10:44:19;18.20;99.90
35804;DHT22;21924;51.934;7.414;2023-04-23T10:47:05;18.20;99.90
35804;DHT22;21924;51.934;7.414;2023-04-23T10:49:49;18.40;99.90
35804;DHT22;21924;51.934;7.414;2023-04-23T10:52:35;18.40;99.90
35804;DHT22;21924;51.934;7.414;2023-04-23T10:55:21;18.50;99.90
35804;DHT22;21924;51.934;7.414;2023-04-23T10:58:06;18.50;99.90
35804;DHT22;21924;51.934;7.414;2023-04-23T11:00:51;18.20;99.90
35804;DHT22;21924;51.934;7.414;2023-04-23T11:03:39;18.10;99.90
35804;DHT22;21924;51.934;7.414;2023-04-23T11:15:18;18.00;99.90
35804;DHT22;21924;51.934;7.414;2023-04-23T11:18:02;18.10;99.90
35804;DHT22;21924;51.934;7.414;2023-04-23T11:20:46;18.20;99.90
35804;DHT22;21924;51.934;7.414;2023-04-23T11:23:33;18.40;99.90
35804;DHT22;21924;51.934;7.414;2023-04-23T11:26:17;18.80;99.90
35804;DHT22;21924;51.934;7.414;2023-04-23T11:29:03;19.10;99.90
35804;DHT22;21924;51.934;7.414;2023-04-23T11:31:49;19.30;99.90
35804;DHT22;21924;51.934;7.414;2023-04-23T11:34:34;19.40;99.90
35804;DHT22;21924;51.934;7.414;2023-04-23T11:37:19;19.50;99.90
35804;DHT22;21924;51.934;7.414;2023-04-23T11:40:08;19.60;99.90
35804;DHT22;21924;51.934;7.414;2023-04-23T11:42:53;19.60;99.90
35804;DHT22;21924;51.934;7.414;2023-04-23T11:45:37;20.10;99.90
35804;DHT22;21924;51.934;7.414;2023-04-23T11:48:22;20.20;99.90
35804;DHT22;21924;51.934;7.414;2023-04-23T11:51:06;20.30;99.90
35804;DHT22;21924;51.934;7.414;2023-04-23T11:53:51;20.00;99.90
35804;DHT22;21924;51.934;7.414;2023-04-23T11:56:36;19.60;99.90
35804;DHT22;21924;51.934;7.414;2023-04-23T11:59:21;19.60;99.90
35804;DHT22;21924;51.934;7.414;2023-04-23T12:02:06;19.60;99.90
35804;DHT22;21924;51.934;7.414;2023-04-23T12:04:50;19.70;99.90
35804;DHT22;21924;51.934;7.414;2023-04-23T12:07:34;19.90;99.90
35804;DHT22;21924;51.934;7.414;2023-04-23T12:10:20;19.60;99.90
35804;DHT22;21924;51.934;7.414;2023-04-23T12:13:04;19.60;99.90
35804;DHT22;21924;51.934;7.414;2023-04-23T12:18:39;19.60;99.90
35804;DHT22;21924;51.934;7.414;2023-04-23T12:21:25;19.50;99.90
35804;DHT22;21924;51.934;7.414;2023-04-23T12:24:12;19.50;99.90
35804;DHT22;21924;51.934;7.414;2023-04-23T12:26:59;19.70;99.90
35804;DHT22;21924;51.934;7.414;2023-04-23T12:29:44;19.30;99.90
35804;DHT22;21924;51.934;7.414;2023-04-23T12:32:32;19.20;99.90
35804;DHT22;21924;51.934;7.414;2023-04-23T12:35:17;19.10;99.90
35804;DHT22;21924;51.934;7.414;2023-04-23T12:38:04;18.90;99.90
35804;DHT22;21924;51.934;7.414;2023-04-23T12:40:48;18.70;99.90
35804;DHT22;21924;51.934;7.414;2023-04-23T12:43:32;18.40;99.90
35804;DHT22;21924;51.934;7.414;2023-04-23T12:46:17;18.10;99.90
35804;DHT22;21924;51.934;7.414;2023-04-23T12:49:01;18.00;99.90
35804;DHT22;21924;51.934;7.414;2023-04-23T12:51:45;17.90;99.90
35804;DHT22;21924;51.934;7.414;2023-04-23T12:54:32;17.90;99.90
35804;DHT22;21924;51.934;7.414;2023-04-23T12:57:17;17.50;99.90
35804;DHT22;21924;51.934;7.414;2023-04-23T13:00:05;17.20;99.90
35804;DHT22;21924;51.934;7.414;2023-04-23T13:02:51;16.80;99.90
35804;DHT22;21924;51.934;7.414;2023-04-23T13:05:36;16.50;99.90
35804;DHT22;21924;51.934;7.414;2023-04-23T13:08:20;16.10;99.90
35804;DHT22;21924;51.934;7.414;2023-04-23T13:11:04;16.00;99.90
35804;DHT22;21924;51.934;7.414;2023-04-23T13:13:48;15.80;99.90
35804;DHT22;21924;51.934;7.414;2023-04-23T13:16:33;15.60;99.90
35804;DHT22;21924;51.934;7.414;2023-04-23T13:19:17;15.90;99.90
35804;DHT22;21924;51.934;7.414;2023-04-23T13:22:02;16.40;99.90
35804;DHT22;21924;51.934;7.414;2023-04-23T13:24:47;16.80;99.90
35804;DHT22;21924;51.934;7.414;2023-04-23T13:27:32;17.00;99.90
35804;DHT22;21924;51.934;7.414;2023-04-23T13:30:16;16.90;99.90
35804;DHT22;21924;51.934;7.414;2023-04-23T13:33:00;17.00;99.90
35804;DHT22;21924;51.934;7.414;2023-04-23T13:35:44;17.20;99.90
35804;DHT22;21924;51.934;7.414;2023-04-23T13:38:29;17.20;99.90
35804;DHT22;21924;51.934;7.414;2023-04-23T13:41:13;17.50;99.90
35804;DHT22;21924;51.934;7.414;2023-04-23T13:43:59;17.90;99.90
35804;DHT22;21924;51.934;7.414;2023-04-23T13:46:43;18.60;99.90
35804;DHT22;21924;51.934;7.414;2023-04-23T13:49:27;19.10;99.90
35804;DHT22;21924;51.934;7.414;2023-04-23T13:52:12;19.60;99.90
35804;DHT22;21924;51.934;7.414;2023-04-23T13:54:56;19.60;99.90
35804;DHT22;21924;51.934;7.414;2023-04-23T13:57:41;19.80;99.90
35804;DHT22;21924;51.934;7.414;2023-04-23T14:00:27;19.90;99.90
35804;DHT22;21924;51.934;7.414;2023-04-23T14:03:12;19.80;99.90
35804;DHT22;21924;51.934;7.414;2023-04-23T14:05:56;19.60;99.90
35804;DHT22;21924;51.934;7.414;2023-04-23T14:08:41;19.70;99.90
35804;DHT22;21924;51.934;7.414;2023-04-23T14:11:26;19.50;99.90
35804;DHT22;21924;51.934;7.414;2023-04-23T14:14:10;19.50;99.90
35804;DHT22;21924;51.934;7.414;2023-04-23T14:16:54;19.60;99.90
35804;DHT22;21924;51.934;7.414;2023-04-23T14:19:38;19.60;99.90
35804;DHT22;21924;51.934;7.414;2023-04-23T14:22:22;19.70;99.90
35804;DHT22;21924;51.934;7.414;2023-04-23T14:25:14;19.50;99.90
35804;DHT22;21924;51.934;7.414;2023-04-23T14:28:28;19.60;99.90
35804;DHT22;21924;51.934;7.414;2023-04-23T14:31:12;19.50;99.90
35804;DHT22;21924;51.934;7.414;2023-04-23T14:33:56;19.40;99.90
35804;DHT22;21924;51.934;7.414;2023-04-23T14:36:42;19.40;99.90
35804;DHT22;21924;51.934;7.414;2023-04-23T14:39:27;19.40;99.90
35804;DHT22;21924;51.934;7.414;2023-04-23T14:42:12;19.20;99.90
35804;DHT22;21924;51.934;7.414;2023-04-23T14:44:58;19.00;99.90
35804;DHT22;21924;51.934;7.414;2023-04-23T14:47:44;18.90;99.90
35804;DHT22;21924;51.934;7.414;2023-04-23T14:50:31;18.80;99.90
35804;DHT22;21924;51.934;7.414;2023-04-23T14:53:16;18.90;99.90
35804;DHT22;21924;51.934;7.414;2023-04-23T14:56:00;19.10;99.90
35804;DHT22;21924;51.934;7.414;2023-04-23T14:58:44;18.90;99.90
35804;DHT22;21924;51.934;7.414;2023-04-23T15:01:29;18.80;99.90
35804;DHT22;21924;51.934;7.414;2023-04-23T15:04:13;18.70;99.90
35804;DHT22;21924;51.934;7.414;2023-04-23T15:06:58;18.60;99.90
35804;DHT22;21924;51.934;7.414;2023-04-23T15:09:42;18.60;99.90
35804;DHT22;21924;51.934;7.414;2023-04-23T15:12:53;18.90;99.90
35804;DHT22;21924;51.934;7.414;2023-04-23T15:15:43;19.40;99.90
35804;DHT22;21924;51.934;7.414;2023-04-23T15:18:31;19.50;99.90
35804;DHT22;21924;51.934;7.414;2023-04-23T15:21:16;19.30;99.90
35804;DHT22;21924;51.934;7.414;2023-04-23T15:24:01;19.30;99.90
35804;DHT22;21924;51.934;7.414;2023-04-23T15:26:45;18.90;99.90
35804;DHT22;21924;51.934;7.414;2023-04-23T15:29:29;18.80;99.90
35804;DHT22;21924;51.934;7.414;2023-04-23T15:32:15;18.60;99.90
35804;DHT22;21924;51.934;7.414;2023-04-23T15:34:59;18.40;99.90
35804;DHT22;21924;51.934;7.414;2023-04-23T15:37:44;18.30;99.90
35804;DHT22;21924;51.934;7.414;2023-04-23T15:40:28;18.30;99.90
35804;DHT22;21924;51.934;7.414;2023-04-23T15:43:12;18.20;99.90
35804;DHT22;21924;51.934;7.414;2023-04-23T15:45:56;18.30;99.90
35804;DHT22;21924;51.934;7.414;2023-04-23T15:48:43;18.00;99.90
35804;DHT22;21924;51.934;7.414;2023-04-23T15:51:28;17.90;99.90
35804;DHT22;21924;51.934;7.414;2023-04-23T15:54:13;17.80;99.90
35804;DHT22;21924;51.934;7.414;2023-04-23T15:56:57;17.80;99.90
35804;DHT22;21924;51.934;7.414;2023-04-23T15:59:41;17.90;99.90
35804;DHT22;21924;51.934;7.414;2023-04-23T16:02:26;17.90;99.90
35804;DHT22;21924;51.934;7.414;2023-04-23T16:05:11;18.00;99.90
35804;DHT22;21924;51.934;7.414;2023-04-23T16:07:56;18.00;99.90
35804;DHT22;21924;51.934;7.414;2023-04-23T16:10:40;17.90;99.90
35804;DHT22;21924;51.934;7.414;2023-04-23T16:13:24;17.90;99.90
35804;DHT22;21924;51.934;7.414;2023-04-23T16:16:10;17.90;99.90
35804;DHT22;21924;51.934;7.414;2023-04-23T16:18:54;17.70;99.90
35804;DHT22;21924;51.934;7.414;2023-04-23T16:21:38;17.60;99.90
35804;DHT22;21924;51.934;7.414;2023-04-23T16:24:22;17.50;99.90
35804;DHT22;21924;51.934;7.414;2023-04-23T16:27:07;17.40;99.90
35804;DHT22;21924;51.934;7.414;2023-04-23T16:29:54;17.30;99.90
35804;DHT22;21924;51.934;7.414;2023-04-23T16:32:38;17.10;99.90
35804;DHT22;21924;51.934;7.414;2023-04-23T16:35:22;17.00;99.90
35804;DHT22;21924;51.934;7.414;2023-04-23T16:38:06;16.80;99.90
35804;DHT22;21924;51.934;7.414;2023-04-23T16:40:53;16.60;99.90
35804;DHT22;21924;51.934;7.414;2023-04-23T16:43:38;16.50;99.90
35804;DHT22;21924;51.934;7.414;2023-04-23T16:46:22;15.60;99.90
35804;DHT22;21924;51.934;7.414;2023-04-23T16:49:08;15.10;99.90
35804;DHT22;21924;51.934;7.414;2023-04-23T16:51:52;14.90;99.90
35804;DHT22;21924;51.934;7.414;2023-04-23T16:54:36;14.70;99.90
35804;DHT22;21924;51.934;7.414;2023-04-23T16:57:21;14.60;99.90
35804;DHT22;21924;51.934;7.414;2023-04-23T17:00:06;14.40;99.90
35804;DHT22;21924;51.934;7.414;2023-04-23T17:02:51;14.40;99.90
35804;DHT22;21924;51.934;7.414;2023-04-23T17:05:37;14.30;99.90
35804;DHT22;21924;51.934;7.414;2023-04-23T17:08:22;14.20;99.90
35804;DHT22;21924;51.934;7.414;2023-04-23T17:11:07;14.10;99.90
35804;DHT22;21924;51.934;7.414;2023-04-23T17:13:53;14.00;99.90
35804;DHT22;21924;51.934;7.414;2023-04-23T17:16:38;14.00;99.90
35804;DHT22;21924;51.934;7.414;2023-04-23T17:19:22;14.00;99.90
35804;DHT22;21924;51.934;7.414;2023-04-23T17:22:06;14.00;99.90
35804;DHT22;21924;51.934;7.414;2023-04-23T17:24:53;14.00;99.90
35804;DHT22;21924;51.934;7.414;2023-04-23T17:27:38;14.00;99.90
35804;DHT22;21924;51.934;7.414;2023-04-23T17:30:22;13.90;99.90
35804;DHT22;21924;51.934;7.414;2023-04-23T17:33:07;13.90;99.90
35804;DHT22;21924;51.934;7.414;2023-04-23T17:35:52;13.90;99.90
35804;DHT22;21924;51.934;7.414;2023-04-23T17:38:36;13.90;99.90